Time;durP1;ratioP1;P1;durP2;ratioP2;P2;SDS_P1;SDS_P2;PMS_P1;PMS_P2;Temp;Humidity;BMP_temperature;BMP_pressure;BME280_temperature;BME280_humidity;BME280_pressure;Samples;Min_cycle;Max_cycle;Signal;HPM_P1;HPM_P2
2021/12/21 00:00:55;;;;;;;;;;;1.70;56.70;;;;;;6193606;23;20218;-91
2021/12/21 00:03:21;;;;;;;;;;;1.80;56.80;;;;;;6193064;23;19916;-91
2021/12/21 00:05:47;;;;;;;;;;;1.90;57.00;;;;;;6193230;23;19946;-92
2021/12/21 00:08:13;;;;;;;;;;;2.00;57.10;;;;;;6219189;23;20310;-91
2021/12/21 00:10:42;;;;;;;;;;;2.10;57.10;;;;;;6192556;23;19912;-92
2021/12/21 00:13:20;;;;;;;;;;;2.20;57.20;;;;;;6192253;23;19916;-91
2021/12/21 00:18:37;;;;;;;;;;;2.30;57.20;;;;;;6218134;23;19908;-90
2021/12/21 00:23:32;;;;;;;;;;;2.50;57.30;;;;;;6218744;23;20244;-91
2021/12/21 00:26:04;;;;;;;;;;;2.50;57.30;;;;;;6192124;23;19938;-91
2021/12/21 00:28:37;;;;;;;;;;;2.60;57.30;;;;;;6217343;23;19978;-91
2021/12/21 00:31:03;;;;;;;;;;;2.60;57.40;;;;;;6191825;23;19963;-92
2021/12/21 00:33:29;;;;;;;;;;;2.70;57.50;;;;;;6216651;23;19927;-91
2021/12/21 00:35:54;;;;;;;;;;;2.80;57.50;;;;;;6217643;23;20201;-91
2021/12/21 00:38:20;;;;;;;;;;;2.80;57.50;;;;;;6191556;23;19935;-91
2021/12/21 00:40:45;;;;;;;;;;;2.80;57.60;;;;;;6215812;23;20329;-92
2021/12/21 00:43:11;;;;;;;;;;;2.80;57.50;;;;;;6192178;23;20296;-91
2021/12/21 00:45:36;;;;;;;;;;;2.80;57.40;;;;;;6218434;23;19912;-91
2021/12/21 00:48:02;;;;;;;;;;;2.80;57.20;;;;;;6190539;23;20256;-91
2021/12/21 00:50:29;;;;;;;;;;;2.80;56.60;;;;;;6192227;23;19912;-91
2021/12/21 00:52:55;;;;;;;;;;;2.70;55.90;;;;;;6192007;23;19934;-92
2021/12/21 00:55:21;;;;;;;;;;;2.60;55.20;;;;;;6166754;23;20233;-92
2021/12/21 00:57:47;;;;;;;;;;;2.50;54.40;;;;;;6191530;23;19904;-92
2021/12/21 01:00:13;;;;;;;;;;;2.30;53.90;;;;;;6218434;23;19940;-91
2021/12/21 01:02:40;;;;;;;;;;;2.30;53.30;;;;;;6192946;23;19904;-91
2021/12/21 01:05:13;;;;;;;;;;;2.10;53.00;;;;;;6217285;23;19912;-92
2021/12/21 01:07:42;;;;;;;;;;;2.00;52.80;;;;;;6218618;23;19904;-92
2021/12/21 01:15:57;;;;;;;;;;;1.70;52.40;;;;;;6226555;23;19915;-92
2021/12/21 01:18:28;;;;;;;;;;;1.60;52.40;;;;;;6190945;23;20213;-91
2021/12/21 01:24:17;;;;;;;;;;;1.50;52.30;;;;;;6212157;23;19912;-90
2021/12/21 01:32:10;;;;;;;;;;;1.20;52.30;;;;;;6218245;23;20387;-91
2021/12/21 01:34:56;;;;;;;;;;;1.10;52.30;;;;;;6191159;23;20222;-91
2021/12/21 01:37:30;;;;;;;;;;;1.10;52.30;;;;;;6216647;23;19931;-91
2021/12/21 01:42:54;;;;;;;;;;;1.00;52.40;;;;;;6219887;23;19927;-91
2021/12/21 01:50:49;;;;;;;;;;;0.90;52.60;;;;;;6217911;23;19943;-91
2021/12/21 01:53:14;;;;;;;;;;;0.90;52.60;;;;;;6191069;23;19904;-92
2021/12/21 01:55:40;;;;;;;;;;;0.80;52.50;;;;;;6192564;23;19916;-91
2021/12/21 01:58:05;;;;;;;;;;;0.80;52.40;;;;;;6217518;23;19915;-91
2021/12/21 02:00:31;;;;;;;;;;;0.80;52.30;;;;;;6218595;23;19931;-92
2021/12/21 02:02:57;;;;;;;;;;;0.80;52.20;;;;;;6193623;23;19911;-91
2021/12/21 02:05:22;;;;;;;;;;;0.80;52.50;;;;;;6218870;23;20225;-90
2021/12/21 02:07:48;;;;;;;;;;;0.70;52.70;;;;;;6217947;23;19935;-90
2021/12/21 02:10:13;;;;;;;;;;;0.70;52.80;;;;;;6218052;23;19908;-92
2021/12/21 02:12:39;;;;;;;;;;;0.70;53.00;;;;;;6191069;23;19908;-91
2021/12/21 02:15:04;;;;;;;;;;;0.70;52.90;;;;;;6190979;23;19908;-92
2021/12/21 02:17:58;;;;;;;;;;;0.70;52.90;;;;;;6191484;23;19962;-91
2021/12/21 02:23:04;;;;;;;;;;;0.70;52.50;;;;;;6229026;23;19932;-91
2021/12/21 02:30:46;;;;;;;;;;;0.70;52.40;;;;;;6224278;23;19931;-91
2021/12/21 02:33:13;;;;;;;;;;;0.60;52.70;;;;;;6218743;23;19942;-91
2021/12/21 02:35:39;;;;;;;;;;;0.60;52.60;;;;;;6191259;23;19912;-91
2021/12/21 02:38:05;;;;;;;;;;;0.60;52.70;;;;;;6216579;23;19934;-91
2021/12/21 02:40:30;;;;;;;;;;;0.60;52.90;;;;;;6191521;23;20006;-91
2021/12/21 02:42:56;;;;;;;;;;;0.60;53.40;;;;;;6217180;23;19908;-92
2021/12/21 02:45:21;;;;;;;;;;;0.70;53.60;;;;;;6218741;23;19990;-90
2021/12/21 02:47:48;;;;;;;;;;;0.70;53.70;;;;;;6190201;23;20273;-90
2021/12/21 02:50:14;;;;;;;;;;;0.80;53.70;;;;;;6190557;23;19908;-91
2021/12/21 02:52:39;;;;;;;;;;;0.80;53.80;;;;;;6190355;23;20532;-89
2021/12/21 02:55:05;;;;;;;;;;;0.80;53.70;;;;;;6218497;23;19939;-90
2021/12/21 02:57:31;;;;;;;;;;;0.90;53.60;;;;;;6216795;23;19916;-92
2021/12/21 02:59:56;;;;;;;;;;;0.90;53.50;;;;;;6190144;23;19982;-90
2021/12/21 03:02:22;;;;;;;;;;;1.00;53.50;;;;;;6190163;23;20214;-90
2021/12/21 03:04:50;;;;;;;;;;;1.00;53.40;;;;;;6216748;23;19912;-92
2021/12/21 03:09:58;;;;;;;;;;;1.00;52.90;;;;;;6228374;23;19907;-90
2021/12/21 03:14:51;;;;;;;;;;;0.90;52.60;;;;;;6218108;23;19914;-90
2021/12/21 03:17:17;;;;;;;;;;;0.90;52.60;;;;;;6217107;23;19912;-90
2021/12/21 03:19:42;;;;;;;;;;;0.90;52.70;;;;;;6191016;23;19908;-89
2021/12/21 03:22:08;;;;;;;;;;;0.80;52.90;;;;;;6191629;23;19964;-91
2021/12/21 03:24:34;;;;;;;;;;;0.80;53.00;;;;;;6190938;23;19931;-92
2021/12/21 03:27:00;;;;;;;;;;;0.80;53.10;;;;;;6191261;23;19908;-90
2021/12/21 03:29:26;;;;;;;;;;;0.90;53.10;;;;;;6192952;23;20396;-90
2021/12/21 03:31:51;;;;;;;;;;;0.90;53.10;;;;;;6218341;23;19908;-90
2021/12/21 03:34:17;;;;;;;;;;;0.80;52.90;;;;;;6190808;23;20303;-90
2021/12/21 03:36:42;;;;;;;;;;;0.80;52.80;;;;;;6191063;23;19912;-90
2021/12/21 03:39:15;;;;;;;;;;;0.80;52.70;;;;;;6216626;23;19904;-92
2021/12/21 03:41:45;;;;;;;;;;;0.80;52.70;;;;;;6191469;23;19912;-91
2021/12/21 03:44:13;;;;;;;;;;;0.80;52.70;;;;;;6191084;23;19974;-91
2021/12/21 03:46:46;;;;;;;;;;;0.70;52.60;;;;;;6216441;23;19942;-90
2021/12/21 03:51:55;;;;;;;;;;;0.70;52.30;;;;;;6221541;23;20332;-92
2021/12/21 03:54:20;;;;;;;;;;;0.60;52.30;;;;;;6192336;23;19912;-91
2021/12/21 03:56:49;;;;;;;;;;;0.60;52.20;;;;;;6219660;23;19912;-92
2021/12/21 03:59:15;;;;;;;;;;;0.50;52.20;;;;;;6191360;23;19904;-93
2021/12/21 04:01:40;;;;;;;;;;;0.50;52.00;;;;;;6193758;23;19950;-91
2021/12/21 04:04:06;;;;;;;;;;;0.40;51.90;;;;;;6221612;23;19919;-92
2021/12/21 04:06:31;;;;;;;;;;;0.40;52.00;;;;;;6221688;23;19939;-91
2021/12/21 04:08:57;;;;;;;;;;;0.30;52.00;;;;;;6221722;23;19904;-92
2021/12/21 04:11:22;;;;;;;;;;;0.30;51.90;;;;;;6218372;23;19912;-93
2021/12/21 04:13:48;;;;;;;;;;;0.30;51.80;;;;;;6194170;23;19908;-93
2021/12/21 04:16:13;;;;;;;;;;;0.30;51.70;;;;;;6218478;23;20089;-93
2021/12/21 04:18:39;;;;;;;;;;;0.20;51.60;;;;;;6192522;23;19908;-92
2021/12/21 04:21:08;;;;;;;;;;;0.20;51.70;;;;;;6194040;23;20031;-92
2021/12/21 04:23:34;;;;;;;;;;;0.20;51.90;;;;;;6219922;23;19908;-92
2021/12/21 04:26:00;;;;;;;;;;;0.20;52.20;;;;;;6223008;23;19916;-91
2021/12/21 04:28:26;;;;;;;;;;;0.20;52.60;;;;;;6224448;23;19916;-92
2021/12/21 04:30:52;;;;;;;;;;;0.20;53.00;;;;;;6195316;23;19916;-93
2021/12/21 04:33:17;;;;;;;;;;;0.20;53.30;;;;;;6194910;23;19911;-92
2021/12/21 04:35:42;;;;;;;;;;;0.30;53.40;;;;;;6195099;23;19912;-91
2021/12/21 04:38:24;;;;;;;;;;;0.30;53.40;;;;;;6194970;23;19915;-93
2021/12/21 04:40:55;;;;;;;;;;;0.40;53.50;;;;;;6221239;23;20233;-92
2021/12/21 04:43:20;;;;;;;;;;;0.40;53.60;;;;;;6195170;23;19959;-92
2021/12/21 04:45:46;;;;;;;;;;;0.40;53.50;;;;;;6222266;23;19912;-91
2021/12/21 04:48:12;;;;;;;;;;;0.40;53.40;;;;;;6195140;23;20441;-93
2021/12/21 04:50:37;;;;;;;;;;;0.50;53.50;;;;;;6220949;23;19943;-91
2021/12/21 04:53:03;;;;;;;;;;;0.50;53.80;;;;;;6195392;23;19919;-92
2021/12/21 04:55:28;;;;;;;;;;;0.50;54.00;;;;;;6194847;23;19920;-91
2021/12/21 04:57:53;;;;;;;;;;;0.50;54.00;;;;;;6194792;23;19904;-92
2021/12/21 05:00:19;;;;;;;;;;;0.60;53.80;;;;;;6194790;23;20344;-91
2021/12/21 05:02:44;;;;;;;;;;;0.50;53.70;;;;;;6197110;23;19904;-91
2021/12/21 05:05:10;;;;;;;;;;;0.60;53.50;;;;;;6221689;23;19923;-91
2021/12/21 05:07:38;;;;;;;;;;;0.60;53.50;;;;;;6223821;23;19903;-91
2021/12/21 05:10:04;;;;;;;;;;;0.60;53.30;;;;;;6197404;23;19904;-91
2021/12/21 05:12:30;;;;;;;;;;;0.50;53.00;;;;;;6195978;23;19928;-91
2021/12/21 05:14:56;;;;;;;;;;;0.50;52.70;;;;;;6191952;23;20321;-91
2021/12/21 05:17:22;;;;;;;;;;;0.50;52.60;;;;;;6223087;23;19912;-92
2021/12/21 05:19:47;;;;;;;;;;;0.40;52.70;;;;;;6196432;23;19904;-92
2021/12/21 05:22:15;;;;;;;;;;;0.40;53.00;;;;;;6196960;23;19914;-90
2021/12/21 05:24:41;;;;;;;;;;;0.40;52.90;;;;;;6197766;23;19967;-91
2021/12/21 05:27:07;;;;;;;;;;;0.40;52.70;;;;;;6196527;23;19908;-91
2021/12/21 05:29:35;;;;;;;;;;;0.40;52.80;;;;;;6222154;23;20383;-91
2021/12/21 05:32:01;;;;;;;;;;;0.40;53.00;;;;;;6197472;23;19908;-91
2021/12/21 05:34:27;;;;;;;;;;;0.40;53.10;;;;;;6196508;23;19915;-92
2021/12/21 05:36:53;;;;;;;;;;;0.40;53.00;;;;;;6196578;23;19962;-90
2021/12/21 05:39:22;;;;;;;;;;;0.40;52.90;;;;;;6197290;23;19912;-91
2021/12/21 05:41:53;;;;;;;;;;;0.40;52.80;;;;;;6196310;23;19912;-92
2021/12/21 05:44:20;;;;;;;;;;;0.30;52.70;;;;;;6195797;23;19920;-91
2021/12/21 05:46:46;;;;;;;;;;;0.30;52.60;;;;;;6196232;23;19908;-91
2021/12/21 05:49:11;;;;;;;;;;;0.30;52.40;;;;;;6224539;23;19918;-91
2021/12/21 05:51:37;;;;;;;;;;;0.30;52.40;;;;;;6193849;23;20304;-91
2021/12/21 05:54:02;;;;;;;;;;;0.30;52.50;;;;;;6195420;23;19919;-91
2021/12/21 05:56:28;;;;;;;;;;;0.30;52.50;;;;;;6218889;23;19911;-91
2021/12/21 05:58:54;;;;;;;;;;;0.30;52.30;;;;;;6194610;23;19991;-92
2021/12/21 06:01:19;;;;;;;;;;;0.30;52.30;;;;;;6221118;23;19963;-90
2021/12/21 06:03:45;;;;;;;;;;;0.20;52.30;;;;;;6220259;23;19916;-91
2021/12/21 06:06:14;;;;;;;;;;;0.20;52.30;;;;;;6192850;23;19908;-91
2021/12/21 06:08:42;;;;;;;;;;;0.20;52.40;;;;;;6193945;23;20232;-92
2021/12/21 06:11:08;;;;;;;;;;;0.20;52.30;;;;;;6193803;23;19915;-91
2021/12/21 06:26:46;;;;;;;;;;;0.00;52.20;;;;;;6223510;23;20335;-91
2021/12/21 06:29:12;;;;;;;;;;;0.00;52.10;;;;;;6220132;23;19908;-91
2021/12/21 06:31:38;;;;;;;;;;;0.00;52.00;;;;;;6192695;23;19916;-91
2021/12/21 06:34:04;;;;;;;;;;;0.00;51.90;;;;;;6220023;23;19987;-91
2021/12/21 06:36:30;;;;;;;;;;;0.00;51.80;;;;;;6193304;23;20327;-91
2021/12/21 06:38:55;;;;;;;;;;;0.00;51.70;;;;;;6194124;23;19990;-92
2021/12/21 06:41:21;;;;;;;;;;;0.00;51.70;;;;;;6193411;23;19912;-90
2021/12/21 06:43:46;;;;;;;;;;;0.00;51.70;;;;;;6193250;23;19912;-92
2021/12/21 06:51:31;;;;;;;;;;;0.00;51.70;;;;;;6208300;23;19915;-93
2021/12/21 06:53:57;;;;;;;;;;;-3276.70;51.80;;;;;;6219525;23;19912;-91
2021/12/21 06:56:25;;;;;;;;;;;-3276.70;51.80;;;;;;6194743;23;20368;-92
2021/12/21 06:58:53;;;;;;;;;;;-3276.70;51.80;;;;;;6194827;23;19907;-91
2021/12/21 07:01:19;;;;;;;;;;;-3276.70;51.70;;;;;;6220138;23;19912;-92
2021/12/21 07:03:44;;;;;;;;;;;-3276.70;51.50;;;;;;6193744;23;19942;-92
2021/12/21 07:06:10;;;;;;;;;;;-3276.70;51.50;;;;;;6193190;23;19912;-92
2021/12/21 07:09:04;;;;;;;;;;;-3276.70;51.60;;;;;;6192732;23;19914;-91
2021/12/21 07:11:40;;;;;;;;;;;-3276.70;51.70;;;;;;6220204;23;19935;-91
2021/12/21 07:19:36;;;;;;;;;;;-3276.60;51.80;;;;;;6211765;23;19919;-91
2021/12/21 07:22:02;;;;;;;;;;;-3276.60;51.90;;;;;;6193823;23;19904;-91
2021/12/21 07:24:28;;;;;;;;;;;-3276.60;51.90;;;;;;6192931;23;19916;-91
2021/12/21 07:26:53;;;;;;;;;;;-3276.70;52.20;;;;;;6193046;23;20320;-90
2021/12/21 07:29:20;;;;;;;;;;;-3276.70;52.30;;;;;;6194411;23;19928;-90
2021/12/21 07:31:45;;;;;;;;;;;-3276.70;52.20;;;;;;6218614;23;19990;-91
2021/12/21 07:34:11;;;;;;;;;;;-3276.70;52.20;;;;;;6193834;23;19908;-91
2021/12/21 07:36:46;;;;;;;;;;;-3276.70;52.10;;;;;;6194053;23;20516;-91
2021/12/21 07:39:13;;;;;;;;;;;-3276.70;52.00;;;;;;6195319;23;19959;-91
2021/12/21 07:41:39;;;;;;;;;;;-3276.70;51.80;;;;;;6195951;23;19911;-90
2021/12/21 07:44:07;;;;;;;;;;;-3276.70;51.90;;;;;;6170757;23;22199;-90
2021/12/21 07:46:33;;;;;;;;;;;-3276.70;52.20;;;;;;6195433;23;19904;-92
2021/12/21 07:48:58;;;;;;;;;;;-3276.70;52.40;;;;;;6194885;23;19923;-91
2021/12/21 07:51:24;;;;;;;;;;;0.00;52.40;;;;;;6194619;23;19904;-92
2021/12/21 07:53:50;;;;;;;;;;;0.00;52.60;;;;;;6170030;23;19954;-91
2021/12/21 07:56:16;;;;;;;;;;;0.00;52.60;;;;;;6195387;23;19952;-90
2021/12/21 07:58:43;;;;;;;;;;;0.00;53.00;;;;;;6194874;23;19915;-92
2021/12/21 08:01:09;;;;;;;;;;;0.10;53.40;;;;;;6195789;23;19966;-91
2021/12/21 08:03:35;;;;;;;;;;;0.10;53.80;;;;;;6195448;23;19975;-91
2021/12/21 08:06:04;;;;;;;;;;;0.20;54.20;;;;;;6222035;23;19915;-91
2021/12/21 08:08:31;;;;;;;;;;;0.30;54.60;;;;;;6169830;23;19958;-90
2021/12/21 08:13:35;;;;;;;;;;;0.60;55.20;;;;;;6225035;23;19943;-91
2021/12/21 08:16:01;;;;;;;;;;;0.70;55.40;;;;;;6194615;23;19908;-91
2021/12/21 08:18:26;;;;;;;;;;;0.80;55.90;;;;;;6194974;23;19931;-90
2021/12/21 08:20:52;;;;;;;;;;;1.00;56.50;;;;;;6196225;23;19990;-91
2021/12/21 08:23:20;;;;;;;;;;;1.20;56.70;;;;;;6220613;23;19995;-91
2021/12/21 08:25:46;;;;;;;;;;;1.30;57.00;;;;;;6194644;23;19912;-91
2021/12/21 08:28:11;;;;;;;;;;;1.50;57.90;;;;;;6221484;23;19908;-89
2021/12/21 08:30:37;;;;;;;;;;;1.80;59.10;;;;;;6193575;23;19908;-91
2021/12/21 08:33:03;;;;;;;;;;;2.20;60.10;;;;;;6218244;23;19942;-91
2021/12/21 08:35:29;;;;;;;;;;;2.60;60.90;;;;;;6195064;23;20300;-91
2021/12/21 08:38:03;;;;;;;;;;;3.00;61.80;;;;;;6219745;23;19975;-91
2021/12/21 08:40:36;;;;;;;;;;;3.50;62.20;;;;;;6219139;23;19935;-92
2021/12/21 08:43:03;;;;;;;;;;;3.90;62.20;;;;;;6195588;23;19912;-91
2021/12/21 08:45:30;;;;;;;;;;;4.30;61.90;;;;;;6221929;23;20332;-91
2021/12/21 08:47:58;;;;;;;;;;;4.40;61.20;;;;;;6193868;23;19927;-91
2021/12/21 08:50:23;;;;;;;;;;;4.50;60.60;;;;;;6192927;23;19973;-90
2021/12/21 08:52:49;;;;;;;;;;;4.40;59.60;;;;;;6219362;23;20484;-92
2021/12/21 08:55:17;;;;;;;;;;;4.40;58.50;;;;;;6220177;23;20019;-92
2021/12/21 08:57:43;;;;;;;;;;;4.20;58.00;;;;;;6195730;23;20269;-92
2021/12/21 09:00:08;;;;;;;;;;;4.00;57.50;;;;;;6194055;23;19933;-90
2021/12/21 09:02:36;;;;;;;;;;;3.80;56.90;;;;;;6195378;23;20626;-91
2021/12/21 09:05:10;;;;;;;;;;;3.70;56.60;;;;;;6194555;23;20276;-90
2021/12/21 09:07:36;;;;;;;;;;;3.60;56.80;;;;;;6221314;23;19935;-92
2021/12/21 09:10:02;;;;;;;;;;;3.50;57.40;;;;;;6219014;23;19907;-91
2021/12/21 09:12:28;;;;;;;;;;;3.50;58.00;;;;;;6194899;23;19923;-91
2021/12/21 09:14:53;;;;;;;;;;;3.60;58.40;;;;;;6221458;23;19911;-91
2021/12/21 09:17:19;;;;;;;;;;;3.60;58.90;;;;;;6194633;23;19916;-92
2021/12/21 09:19:44;;;;;;;;;;;3.70;59.10;;;;;;6195402;23;19955;-92
2021/12/21 09:22:10;;;;;;;;;;;3.80;59.30;;;;;;6194460;23;19918;-92
2021/12/21 09:24:36;;;;;;;;;;;3.90;59.40;;;;;;6221937;23;19918;-91
2021/12/21 09:27:01;;;;;;;;;;;4.00;59.30;;;;;;6221384;23;19914;-91
2021/12/21 09:29:26;;;;;;;;;;;4.00;59.30;;;;;;6219266;23;19908;-91
2021/12/21 09:31:52;;;;;;;;;;;4.10;59.40;;;;;;6194881;23;19904;-91
2021/12/21 09:34:17;;;;;;;;;;;4.20;59.60;;;;;;6228710;23;19922;-92
2021/12/21 09:36:43;;;;;;;;;;;4.20;59.80;;;;;;6224443;23;19923;-93
2021/12/21 09:39:28;;;;;;;;;;;4.30;59.70;;;;;;6192921;23;19923;-92
2021/12/21 09:41:53;;;;;;;;;;;4.30;59.70;;;;;;6195143;23;19975;-92
2021/12/21 09:44:19;;;;;;;;;;;4.40;59.70;;;;;;6221559;23;19979;-93
2021/12/21 09:46:45;;;;;;;;;;;4.40;59.60;;;;;;6195440;23;20272;-93
2021/12/21 09:49:11;;;;;;;;;;;4.50;59.60;;;;;;6195728;23;19916;-94
2021/12/21 09:51:38;;;;;;;;;;;4.50;59.70;;;;;;6222541;23;19908;-92
2021/12/21 09:54:04;;;;;;;;;;;4.60;59.70;;;;;;6194175;23;19935;-94
2021/12/21 09:56:30;;;;;;;;;;;4.70;59.70;;;;;;6193691;23;19935;-91
2021/12/21 09:58:55;;;;;;;;;;;4.80;59.80;;;;;;6221250;23;19935;-94
2021/12/21 10:01:21;;;;;;;;;;;4.90;59.80;;;;;;6220006;23;19904;-93
2021/12/21 10:03:47;;;;;;;;;;;4.90;60.00;;;;;;6221082;23;19920;-91
2021/12/21 10:06:13;;;;;;;;;;;5.00;60.00;;;;;;6195248;23;19947;-93
2021/12/21 10:08:39;;;;;;;;;;;5.10;60.20;;;;;;6194496;23;19954;-92
2021/12/21 10:11:15;;;;;;;;;;;5.10;60.00;;;;;;6222419;23;19911;-91
2021/12/21 10:13:41;;;;;;;;;;;5.30;60.00;;;;;;6196526;23;19918;-91
2021/12/21 10:16:06;;;;;;;;;;;5.30;59.90;;;;;;6195055;23;19936;-92
2021/12/21 10:18:41;;;;;;;;;;;5.30;59.60;;;;;;6195284;23;19911;-94
2021/12/21 10:21:09;;;;;;;;;;;5.40;59.50;;;;;;6196348;23;20273;-95
2021/12/21 10:23:37;;;;;;;;;;;5.40;59.60;;;;;;6195138;23;19959;-94
2021/12/21 10:26:04;;;;;;;;;;;5.40;59.90;;;;;;6196467;23;19926;-96
2021/12/21 10:28:35;;;;;;;;;;;5.50;60.10;;;;;;6197082;23;19912;-92
2021/12/21 10:31:02;;;;;;;;;;;5.50;60.10;;;;;;6196350;23;19914;-92
2021/12/21 10:33:29;;;;;;;;;;;5.60;60.10;;;;;;6221617;23;20233;-91
2021/12/21 10:35:56;;;;;;;;;;;5.60;59.80;;;;;;6220165;23;20004;-92
2021/12/21 10:38:29;;;;;;;;;;;5.70;59.70;;;;;;6218809;23;19915;-90
2021/12/21 10:40:57;;;;;;;;;;;5.70;59.40;;;;;;6218715;23;19915;-90
2021/12/21 10:43:26;;;;;;;;;;;5.70;59.30;;;;;;6219446;23;19942;-91
2021/12/21 10:45:53;;;;;;;;;;;5.70;59.60;;;;;;6170694;23;20280;-91
2021/12/21 10:48:19;;;;;;;;;;;5.80;59.70;;;;;;6194282;23;19964;-91
2021/12/21 10:50:46;;;;;;;;;;;5.80;59.70;;;;;;6222506;23;19899;-92
2021/12/21 10:53:23;;;;;;;;;;;5.80;59.80;;;;;;6222505;23;19935;-90
2021/12/21 10:56:18;;;;;;;;;;;5.90;59.60;;;;;;6195603;23;19919;-90
2021/12/21 10:58:44;;;;;;;;;;;5.90;59.70;;;;;;6189400;23;19908;-91
2021/12/21 11:18:18;;;;;;;;;;;6.20;59.60;;;;;;6227963;23;19968;-88
2021/12/21 11:20:46;;;;;;;;;;;6.30;59.80;;;;;;6228515;23;20243;-89
2021/12/21 11:23:15;;;;;;;;;;;6.40;59.60;;;;;;6201359;23;19916;-89
2021/12/21 11:25:42;;;;;;;;;;;6.30;59.50;;;;;;6222445;23;19990;-89
2021/12/21 11:28:09;;;;;;;;;;;6.40;59.40;;;;;;6227587;23;19916;-89
2021/12/21 11:30:35;;;;;;;;;;;6.30;59.30;;;;;;6227030;23;19910;-89
2021/12/21 11:33:01;;;;;;;;;;;6.40;59.30;;;;;;6226556;23;19920;-89
2021/12/21 11:37:59;;;;;;;;;;;6.40;59.00;;;;;;6227218;23;19939;-88
2021/12/21 11:40:30;;;;;;;;;;;6.40;59.20;;;;;;6228428;23;20195;-88
2021/12/21 11:43:00;;;;;;;;;;;6.50;59.50;;;;;;6208988;23;19916;-89
2021/12/21 11:45:30;;;;;;;;;;;6.60;59.70;;;;;;6230745;23;19916;-88
2021/12/21 11:48:01;;;;;;;;;;;6.70;59.70;;;;;;6204638;23;19927;-89
2021/12/21 11:50:27;;;;;;;;;;;6.70;59.50;;;;;;6204457;23;19915;-88
2021/12/21 11:52:55;;;;;;;;;;;6.70;59.30;;;;;;6229538;23;19912;-90
2021/12/21 11:55:22;;;;;;;;;;;6.70;59.30;;;;;;6227545;23;19931;-89
2021/12/21 11:57:47;;;;;;;;;;;6.70;59.40;;;;;;6227188;23;19916;-89
2021/12/21 12:00:19;;;;;;;;;;;6.70;59.30;;;;;;6203363;23;19904;-90
2021/12/21 12:02:45;;;;;;;;;;;6.70;59.10;;;;;;6226373;23;20588;-90
2021/12/21 12:05:19;;;;;;;;;;;6.60;59.10;;;;;;6225195;23;19916;-89
2021/12/21 12:07:45;;;;;;;;;;;6.60;59.20;;;;;;6199677;23;19990;-89
2021/12/21 12:10:12;;;;;;;;;;;6.50;59.30;;;;;;6225788;23;19907;-89
2021/12/21 12:12:38;;;;;;;;;;;6.40;59.40;;;;;;6227262;23;19939;-89
2021/12/21 12:15:05;;;;;;;;;;;6.50;59.30;;;;;;6223494;23;20228;-89
2021/12/21 12:17:31;;;;;;;;;;;6.50;59.60;;;;;;6224641;23;19928;-89
2021/12/21 12:20:02;;;;;;;;;;;6.60;60.00;;;;;;6227600;23;19927;-88
2021/12/21 12:22:57;;;;;;;;;;;6.60;59.80;;;;;;6199925;23;20003;-89
2021/12/21 12:25:24;;;;;;;;;;;6.70;59.90;;;;;;6194995;23;19916;-88
2021/12/21 12:27:50;;;;;;;;;;;6.60;59.70;;;;;;6224510;23;19942;-90
2021/12/21 12:30:18;;;;;;;;;;;6.60;59.50;;;;;;6219408;23;19915;-89
2021/12/21 12:32:47;;;;;;;;;;;6.60;59.60;;;;;;6222433;23;19927;-89
2021/12/21 12:35:17;;;;;;;;;;;6.50;59.50;;;;;;6222844;23;19962;-89
2021/12/21 12:37:51;;;;;;;;;;;6.60;59.50;;;;;;6224204;23;19916;-89
2021/12/21 12:40:18;;;;;;;;;;;6.60;59.30;;;;;;6220101;23;19915;-89
2021/12/21 12:42:53;;;;;;;;;;;6.60;59.20;;;;;;6217724;23;19982;-89
2021/12/21 12:45:21;;;;;;;;;;;6.60;59.40;;;;;;6199746;23;19920;-88
2021/12/21 12:47:49;;;;;;;;;;;6.60;59.50;;;;;;6221724;23;19999;-88
2021/12/21 12:50:21;;;;;;;;;;;6.60;59.60;;;;;;6220330;23;19918;-90
2021/12/21 12:52:58;;;;;;;;;;;6.60;59.30;;;;;;6220234;23;19912;-89
2021/12/21 12:55:25;;;;;;;;;;;6.50;58.90;;;;;;6221447;23;20030;-89
2021/12/21 12:57:55;;;;;;;;;;;6.50;58.80;;;;;;6219488;23;19919;-89
2021/12/21 13:00:24;;;;;;;;;;;6.50;58.90;;;;;;6195575;23;19916;-88
2021/12/21 13:03:07;;;;;;;;;;;6.60;59.40;;;;;;6192852;23;19912;-89
2021/12/21 13:05:37;;;;;;;;;;;6.60;59.60;;;;;;6221620;23;19920;-90
2021/12/21 13:08:11;;;;;;;;;;;6.70;59.50;;;;;;6217186;23;19916;-90
2021/12/21 13:10:38;;;;;;;;;;;6.60;59.00;;;;;;6222521;23;19907;-90
2021/12/21 13:13:04;;;;;;;;;;;6.60;58.90;;;;;;6220833;23;20159;-90
2021/12/21 13:15:37;;;;;;;;;;;6.50;58.60;;;;;;6225167;23;19976;-89
2021/12/21 13:18:06;;;;;;;;;;;6.40;58.80;;;;;;6222146;23;19920;-89
2021/12/21 13:20:33;;;;;;;;;;;6.30;58.90;;;;;;6220399;23;19904;-90
2021/12/21 13:23:13;;;;;;;;;;;6.30;59.10;;;;;;6226508;23;19912;-90
2021/12/21 13:25:39;;;;;;;;;;;6.30;59.10;;;;;;6224721;23;19912;-90
2021/12/21 13:28:08;;;;;;;;;;;6.30;59.00;;;;;;6221491;23;20003;-89
2021/12/21 13:30:34;;;;;;;;;;;6.20;58.90;;;;;;6195358;23;19915;-89
2021/12/21 13:33:00;;;;;;;;;;;6.20;58.80;;;;;;6222659;23;19916;-89
2021/12/21 13:35:28;;;;;;;;;;;6.20;58.80;;;;;;6222220;23;19888;-89
2021/12/21 13:37:53;;;;;;;;;;;6.20;58.90;;;;;;6219591;23;19964;-89
2021/12/21 13:40:19;;;;;;;;;;;6.20;59.20;;;;;;6218064;23;19908;-90
2021/12/21 13:42:44;;;;;;;;;;;6.20;59.30;;;;;;6219671;23;19916;-89
2021/12/21 13:45:09;;;;;;;;;;;6.20;59.40;;;;;;6198833;23;19923;-90
2021/12/21 13:47:40;;;;;;;;;;;6.20;59.40;;;;;;6221577;23;19912;-89
2021/12/21 13:50:11;;;;;;;;;;;6.30;59.40;;;;;;6217412;23;19904;-89
2021/12/21 13:52:48;;;;;;;;;;;6.30;59.40;;;;;;6219961;23;19916;-89
2021/12/21 13:55:25;;;;;;;;;;;6.30;59.40;;;;;;6217794;23;19904;-89
2021/12/21 13:57:51;;;;;;;;;;;6.20;59.20;;;;;;6217313;23;19920;-89
2021/12/21 14:00:17;;;;;;;;;;;6.20;59.10;;;;;;6218597;23;19904;-88
2021/12/21 14:02:50;;;;;;;;;;;6.20;59.10;;;;;;6219139;23;19982;-89
2021/12/21 14:05:17;;;;;;;;;;;6.20;59.10;;;;;;6223804;23;19915;-89
2021/12/21 14:07:44;;;;;;;;;;;6.20;58.50;;;;;;6219569;23;19916;-89
2021/12/21 14:10:13;;;;;;;;;;;6.10;58.30;;;;;;6215441;23;19919;-88
2021/12/21 14:12:38;;;;;;;;;;;6.00;58.10;;;;;;6216785;23;19916;-89
2021/12/21 14:15:05;;;;;;;;;;;6.00;58.10;;;;;;6217798;23;19908;-90
2021/12/21 14:17:30;;;;;;;;;;;5.90;58.20;;;;;;6218519;23;19959;-88
2021/12/21 14:19:57;;;;;;;;;;;5.90;58.20;;;;;;6219101;23;20240;-89
2021/12/21 14:22:22;;;;;;;;;;;5.80;58.50;;;;;;6217680;23;19912;-89
2021/12/21 14:24:50;;;;;;;;;;;5.80;58.70;;;;;;6218192;23;19931;-90
2021/12/21 14:27:16;;;;;;;;;;;5.80;58.90;;;;;;6215275;23;19920;-90
2021/12/21 14:29:42;;;;;;;;;;;5.80;59.10;;;;;;6218027;23;20295;-91
2021/12/21 14:34:40;;;;;;;;;;;5.80;59.20;;;;;;6226559;23;19951;-90
2021/12/21 14:37:20;;;;;;;;;;;5.80;59.20;;;;;;6208047;23;19915;-89
2021/12/21 14:39:49;;;;;;;;;;;5.90;59.20;;;;;;6216429;23;19911;-88
2021/12/21 14:42:17;;;;;;;;;;;6.00;59.10;;;;;;6219269;23;19958;-90
2021/12/21 14:44:44;;;;;;;;;;;5.90;59.00;;;;;;6217853;23;20006;-89
2021/12/21 14:47:09;;;;;;;;;;;5.90;58.70;;;;;;6216606;23;20284;-89
2021/12/21 14:49:46;;;;;;;;;;;5.90;58.40;;;;;;6194276;23;20247;-90
2021/12/21 14:52:39;;;;;;;;;;;5.80;58.20;;;;;;6220333;23;20328;-89
2021/12/21 14:55:04;;;;;;;;;;;5.80;58.30;;;;;;6218761;23;19918;-89
2021/12/21 14:57:29;;;;;;;;;;;5.70;58.40;;;;;;6219820;23;19939;-89
2021/12/21 14:59:55;;;;;;;;;;;5.70;58.20;;;;;;6190641;23;19959;-90
2021/12/21 15:02:49;;;;;;;;;;;5.50;57.90;;;;;;6221179;23;19998;-88
2021/12/21 15:05:10;;;;;;;;;;;5.40;58.10;;;;;;6223490;23;19912;-89
2021/12/21 15:07:45;;;;;;;;;;;5.40;58.50;;;;;;6220136;23;20501;-89
2021/12/21 15:10:12;;;;;;;;;;;5.30;58.60;;;;;;6223450;23;19919;-89
2021/12/21 15:12:38;;;;;;;;;;;5.40;58.70;;;;;;6217398;23;19916;-90
2021/12/21 15:15:04;;;;;;;;;;;5.30;58.80;;;;;;6217177;23;19932;-89
2021/12/21 15:17:30;;;;;;;;;;;5.40;58.80;;;;;;6219643;23;19920;-90
2021/12/21 15:19:55;;;;;;;;;;;5.40;58.80;;;;;;6217267;23;19911;-90
2021/12/21 15:22:21;;;;;;;;;;;5.40;58.60;;;;;;6222758;23;19927;-89
2021/12/21 15:24:46;;;;;;;;;;;5.40;58.70;;;;;;6204152;23;19927;-89
2021/12/21 15:27:12;;;;;;;;;;;5.30;58.80;;;;;;6223210;23;19903;-90
2021/12/21 15:29:38;;;;;;;;;;;5.30;58.70;;;;;;6221457;23;19908;-89
2021/12/21 15:32:04;;;;;;;;;;;5.30;58.50;;;;;;6220653;23;20532;-88
2021/12/21 15:34:30;;;;;;;;;;;5.30;58.50;;;;;;6226636;23;19912;-90
2021/12/21 15:36:56;;;;;;;;;;;5.30;58.60;;;;;;6222052;23;19919;-90
2021/12/21 15:39:22;;;;;;;;;;;5.30;58.60;;;;;;6225250;23;19908;-90
2021/12/21 15:41:54;;;;;;;;;;;5.30;58.70;;;;;;6193587;23;19916;-91
2021/12/21 15:44:27;;;;;;;;;;;5.30;58.70;;;;;;6225606;23;19916;-90
2021/12/21 15:46:52;;;;;;;;;;;5.30;58.80;;;;;;6218755;23;19916;-90
2021/12/21 15:49:19;;;;;;;;;;;5.20;59.00;;;;;;6225723;23;19947;-90
2021/12/21 15:51:45;;;;;;;;;;;5.20;58.80;;;;;;6221421;23;19936;-90
2021/12/21 15:54:11;;;;;;;;;;;5.20;58.60;;;;;;6218054;23;19912;-89
2021/12/21 15:56:37;;;;;;;;;;;5.20;58.50;;;;;;6216471;23;19978;-89
2021/12/21 15:59:03;;;;;;;;;;;5.20;58.50;;;;;;6219137;23;19955;-90
2021/12/21 16:01:28;;;;;;;;;;;5.20;58.30;;;;;;6224045;23;19927;-90